sensor_id;sensor_type;location;lat;lon;timestamp;P1;durP1;ratioP1;P2;durP2;ratioP2
8622;SDS011;4349;47.552;8.904;2023-07-09T00:01:11;4.43;;;4.00;;
8622;SDS011;4349;47.552;8.904;2023-07-09T00:03:40;4.40;;;4.10;;
8622;SDS011;4349;47.552;8.904;2023-07-09T00:06:07;4.43;;;4.07;;
8622;SDS011;4349;47.552;8.904;2023-07-09T00:08:35;4.60;;;4.20;;
8622;SDS011;4349;47.552;8.904;2023-07-09T00:11:05;4.60;;;4.20;;
8622;SDS011;4349;47.552;8.904;2023-07-09T00:13:33;4.47;;;4.07;;
8622;SDS011;4349;47.552;8.904;2023-07-09T00:16:01;4.30;;;4.00;;
8622;SDS011;4349;47.552;8.904;2023-07-09T00:18:31;4.20;;;4.00;;
8622;SDS011;4349;47.552;8.904;2023-07-09T00:20:58;4.63;;;4.00;;
8622;SDS011;4349;47.552;8.904;2023-07-09T00:23:26;4.20;;;3.90;;
8622;SDS011;4349;47.552;8.904;2023-07-09T00:25:54;4.50;;;4.10;;
8622;SDS011;4349;47.552;8.904;2023-07-09T00:28:21;6.97;;;4.43;;
8622;SDS011;4349;47.552;8.904;2023-07-09T00:30:49;4.73;;;4.20;;
8622;SDS011;4349;47.552;8.904;2023-07-09T00:33:17;4.47;;;4.17;;
8622;SDS011;4349;47.552;8.904;2023-07-09T00:35:47;4.50;;;4.13;;
8622;SDS011;4349;47.552;8.904;2023-07-09T00:38:18;3.97;;;3.67;;
8622;SDS011;4349;47.552;8.904;2023-07-09T00:40:47;4.10;;;3.90;;
8622;SDS011;4349;47.552;8.904;2023-07-09T00:43:16;4.87;;;4.37;;
8622;SDS011;4349;47.552;8.904;2023-07-09T00:45:44;5.97;;;4.20;;
8622;SDS011;4349;47.552;8.904;2023-07-09T00:48:12;5.90;;;3.83;;
8622;SDS011;4349;47.552;8.904;2023-07-09T00:50:42;4.63;;;4.33;;
8622;SDS011;4349;47.552;8.904;2023-07-09T00:53:15;4.25;;;3.95;;
8622;SDS011;4349;47.552;8.904;2023-07-09T00:55:46;4.70;;;4.20;;
8622;SDS011;4349;47.552;8.904;2023-07-09T00:58:17;5.20;;;4.80;;
8622;SDS011;4349;47.552;8.904;2023-07-09T01:00:45;5.10;;;4.43;;
8622;SDS011;4349;47.552;8.904;2023-07-09T01:03:29;4.40;;;4.10;;
8622;SDS011;4349;47.552;8.904;2023-07-09T01:05:59;5.10;;;4.80;;
8622;SDS011;4349;47.552;8.904;2023-07-09T01:08:29;4.60;;;4.30;;
8622;SDS011;4349;47.552;8.904;2023-07-09T01:10:57;6.73;;;4.60;;
8622;SDS011;4349;47.552;8.904;2023-07-09T01:13:25;4.60;;;4.33;;
8622;SDS011;4349;47.552;8.904;2023-07-09T01:15:53;4.47;;;4.17;;
8622;SDS011;4349;47.552;8.904;2023-07-09T01:18:22;4.70;;;4.30;;
8622;SDS011;4349;47.552;8.904;2023-07-09T01:20:50;4.67;;;4.00;;
8622;SDS011;4349;47.552;8.904;2023-07-09T01:23:20;4.83;;;4.17;;
8622;SDS011;4349;47.552;8.904;2023-07-09T01:25:50;4.90;;;4.50;;
8622;SDS011;4349;47.552;8.904;2023-07-09T01:28:19;4.50;;;4.20;;
8622;SDS011;4349;47.552;8.904;2023-07-09T01:30:46;4.93;;;4.63;;
8622;SDS011;4349;47.552;8.904;2023-07-09T01:33:20;4.50;;;4.20;;
8622;SDS011;4349;47.552;8.904;2023-07-09T01:35:48;4.87;;;4.47;;
8622;SDS011;4349;47.552;8.904;2023-07-09T01:38:16;4.57;;;4.27;;
8622;SDS011;4349;47.552;8.904;2023-07-09T01:40:45;5.03;;;4.60;;
8622;SDS011;4349;47.552;8.904;2023-07-09T01:43:13;4.23;;;3.93;;
8622;SDS011;4349;47.552;8.904;2023-07-09T01:45:41;4.97;;;4.23;;
8622;SDS011;4349;47.552;8.904;2023-07-09T01:48:08;4.67;;;4.10;;
8622;SDS011;4349;47.552;8.904;2023-07-09T01:50:41;4.53;;;4.23;;
8622;SDS011;4349;47.552;8.904;2023-07-09T01:53:09;4.37;;;4.07;;
8622;SDS011;4349;47.552;8.904;2023-07-09T01:55:40;4.57;;;4.30;;
8622;SDS011;4349;47.552;8.904;2023-07-09T01:58:09;4.50;;;4.10;;
8622;SDS011;4349;47.552;8.904;2023-07-09T02:00:37;5.60;;;4.70;;
8622;SDS011;4349;47.552;8.904;2023-07-09T02:03:07;4.37;;;4.13;;
8622;SDS011;4349;47.552;8.904;2023-07-09T02:05:35;4.60;;;4.23;;
8622;SDS011;4349;47.552;8.904;2023-07-09T02:08:03;4.37;;;3.90;;
8622;SDS011;4349;47.552;8.904;2023-07-09T02:10:31;4.30;;;4.10;;
8622;SDS011;4349;47.552;8.904;2023-07-09T02:12:58;5.00;;;4.60;;
8622;SDS011;4349;47.552;8.904;2023-07-09T02:15:27;4.60;;;4.20;;
8622;SDS011;4349;47.552;8.904;2023-07-09T02:17:56;4.60;;;4.20;;
8622;SDS011;4349;47.552;8.904;2023-07-09T02:20:25;4.70;;;4.40;;
8622;SDS011;4349;47.552;8.904;2023-07-09T02:22:53;4.73;;;4.33;;
8622;SDS011;4349;47.552;8.904;2023-07-09T02:25:20;4.60;;;4.30;;
8622;SDS011;4349;47.552;8.904;2023-07-09T02:27:48;4.47;;;4.10;;
8622;SDS011;4349;47.552;8.904;2023-07-09T02:30:17;4.37;;;4.03;;
8622;SDS011;4349;47.552;8.904;2023-07-09T02:32:45;5.33;;;4.10;;
8622;SDS011;4349;47.552;8.904;2023-07-09T02:35:13;4.80;;;4.30;;
8622;SDS011;4349;47.552;8.904;2023-07-09T02:37:40;4.60;;;4.30;;
8622;SDS011;4349;47.552;8.904;2023-07-09T02:40:08;4.13;;;3.83;;
8622;SDS011;4349;47.552;8.904;2023-07-09T02:42:37;5.90;;;4.50;;
8622;SDS011;4349;47.552;8.904;2023-07-09T02:45:05;5.50;;;4.20;;
8622;SDS011;4349;47.552;8.904;2023-07-09T02:47:32;4.50;;;4.20;;
8622;SDS011;4349;47.552;8.904;2023-07-09T02:50:02;4.53;;;4.27;;
8622;SDS011;4349;47.552;8.904;2023-07-09T02:52:30;4.33;;;3.90;;
8622;SDS011;4349;47.552;8.904;2023-07-09T02:54:58;4.27;;;3.90;;
8622;SDS011;4349;47.552;8.904;2023-07-09T02:57:25;4.80;;;4.40;;
8622;SDS011;4349;47.552;8.904;2023-07-09T02:59:53;4.57;;;4.27;;
8622;SDS011;4349;47.552;8.904;2023-07-09T03:02:20;4.57;;;4.17;;
8622;SDS011;4349;47.552;8.904;2023-07-09T03:04:48;5.13;;;4.73;;
8622;SDS011;4349;47.552;8.904;2023-07-09T03:07:17;5.07;;;4.60;;
8622;SDS011;4349;47.552;8.904;2023-07-09T03:09:44;4.30;;;3.97;;
8622;SDS011;4349;47.552;8.904;2023-07-09T03:12:12;4.30;;;4.00;;
8622;SDS011;4349;47.552;8.904;2023-07-09T03:14:39;6.60;;;4.00;;
8622;SDS011;4349;47.552;8.904;2023-07-09T03:17:07;6.13;;;4.23;;
8622;SDS011;4349;47.552;8.904;2023-07-09T03:19:34;4.30;;;4.00;;
8622;SDS011;4349;47.552;8.904;2023-07-09T03:22:03;4.50;;;4.20;;
8622;SDS011;4349;47.552;8.904;2023-07-09T03:24:32;4.60;;;4.30;;
8622;SDS011;4349;47.552;8.904;2023-07-09T03:26:59;4.60;;;4.23;;
8622;SDS011;4349;47.552;8.904;2023-07-09T03:29:27;4.33;;;4.03;;
8622;SDS011;4349;47.552;8.904;2023-07-09T03:31:54;4.43;;;4.07;;
8622;SDS011;4349;47.552;8.904;2023-07-09T03:34:22;4.77;;;4.30;;
8622;SDS011;4349;47.552;8.904;2023-07-09T03:36:49;4.37;;;4.07;;
8622;SDS011;4349;47.552;8.904;2023-07-09T03:39:17;4.37;;;3.80;;
8622;SDS011;4349;47.552;8.904;2023-07-09T03:41:46;3.90;;;3.70;;
8622;SDS011;4349;47.552;8.904;2023-07-09T03:44:13;4.30;;;4.00;;
8622;SDS011;4349;47.552;8.904;2023-07-09T03:46:41;4.80;;;4.40;;
8622;SDS011;4349;47.552;8.904;2023-07-09T03:49:08;4.10;;;3.90;;
8622;SDS011;4349;47.552;8.904;2023-07-09T03:51:36;3.80;;;3.60;;
8622;SDS011;4349;47.552;8.904;2023-07-09T03:54:03;5.10;;;3.90;;
8622;SDS011;4349;47.552;8.904;2023-07-09T03:56:31;4.30;;;3.90;;
8622;SDS011;4349;47.552;8.904;2023-07-09T03:59:00;3.97;;;3.67;;
8622;SDS011;4349;47.552;8.904;2023-07-09T04:01:28;4.30;;;4.00;;
8622;SDS011;4349;47.552;8.904;2023-07-09T04:03:57;5.97;;;4.30;;
8622;SDS011;4349;47.552;8.904;2023-07-09T04:06:24;4.53;;;4.23;;
8622;SDS011;4349;47.552;8.904;2023-07-09T04:08:52;5.37;;;4.10;;
8622;SDS011;4349;47.552;8.904;2023-07-09T04:11:19;4.53;;;4.20;;
8622;SDS011;4349;47.552;8.904;2023-07-09T04:13:47;4.83;;;4.57;;
8622;SDS011;4349;47.552;8.904;2023-07-09T04:16:16;4.50;;;4.20;;
8622;SDS011;4349;47.552;8.904;2023-07-09T04:18:43;4.77;;;4.47;;
8622;SDS011;4349;47.552;8.904;2023-07-09T04:21:11;4.87;;;4.40;;
8622;SDS011;4349;47.552;8.904;2023-07-09T04:23:38;5.07;;;4.63;;
8622;SDS011;4349;47.552;8.904;2023-07-09T04:26:06;5.03;;;4.50;;
8622;SDS011;4349;47.552;8.904;2023-07-09T04:28:35;5.30;;;4.70;;
8622;SDS011;4349;47.552;8.904;2023-07-09T04:31:02;4.73;;;4.43;;
8622;SDS011;4349;47.552;8.904;2023-07-09T04:33:31;5.17;;;4.67;;
8622;SDS011;4349;47.552;8.904;2023-07-09T04:36:02;4.70;;;4.40;;
8622;SDS011;4349;47.552;8.904;2023-07-09T04:38:33;4.27;;;3.87;;
8622;SDS011;4349;47.552;8.904;2023-07-09T04:41:00;4.60;;;4.27;;
8622;SDS011;4349;47.552;8.904;2023-07-09T04:43:28;4.03;;;3.83;;
8622;SDS011;4349;47.552;8.904;2023-07-09T04:45:55;4.80;;;4.50;;
8622;SDS011;4349;47.552;8.904;2023-07-09T04:48:23;5.40;;;4.60;;
8622;SDS011;4349;47.552;8.904;2023-07-09T04:50:52;5.10;;;4.70;;
8622;SDS011;4349;47.552;8.904;2023-07-09T04:53:19;4.63;;;4.33;;
8622;SDS011;4349;47.552;8.904;2023-07-09T04:55:46;5.00;;;4.57;;
8622;SDS011;4349;47.552;8.904;2023-07-09T04:58:15;5.33;;;4.83;;
8622;SDS011;4349;47.552;8.904;2023-07-09T05:00:42;5.03;;;4.53;;
8622;SDS011;4349;47.552;8.904;2023-07-09T05:03:10;5.43;;;4.87;;
8622;SDS011;4349;47.552;8.904;2023-07-09T05:05:41;5.00;;;4.50;;
8622;SDS011;4349;47.552;8.904;2023-07-09T05:08:10;4.60;;;4.20;;
8622;SDS011;4349;47.552;8.904;2023-07-09T05:10:40;4.73;;;4.37;;
8622;SDS011;4349;47.552;8.904;2023-07-09T05:13:08;5.70;;;4.70;;
8622;SDS011;4349;47.552;8.904;2023-07-09T05:15:35;5.30;;;4.90;;
8622;SDS011;4349;47.552;8.904;2023-07-09T05:18:03;5.40;;;4.83;;
8622;SDS011;4349;47.552;8.904;2023-07-09T05:20:30;5.40;;;4.90;;
8622;SDS011;4349;47.552;8.904;2023-07-09T05:22:58;5.77;;;5.27;;
8622;SDS011;4349;47.552;8.904;2023-07-09T05:25:27;5.30;;;4.90;;
8622;SDS011;4349;47.552;8.904;2023-07-09T05:27:54;5.80;;;5.30;;
8622;SDS011;4349;47.552;8.904;2023-07-09T05:30:22;6.10;;;4.90;;
8622;SDS011;4349;47.552;8.904;2023-07-09T05:32:49;4.93;;;4.57;;
8622;SDS011;4349;47.552;8.904;2023-07-09T05:35:19;5.00;;;4.60;;
8622;SDS011;4349;47.552;8.904;2023-07-09T05:37:47;5.50;;;4.90;;
8622;SDS011;4349;47.552;8.904;2023-07-09T05:40:14;5.10;;;4.80;;
8622;SDS011;4349;47.552;8.904;2023-07-09T05:42:43;7.37;;;5.30;;
8622;SDS011;4349;47.552;8.904;2023-07-09T05:45:11;5.37;;;5.07;;
8622;SDS011;4349;47.552;8.904;2023-07-09T05:47:38;6.30;;;5.73;;
8622;SDS011;4349;47.552;8.904;2023-07-09T05:50:06;5.90;;;5.30;;
8622;SDS011;4349;47.552;8.904;2023-07-09T05:52:34;5.67;;;5.27;;
8622;SDS011;4349;47.552;8.904;2023-07-09T05:55:01;6.03;;;5.63;;
8622;SDS011;4349;47.552;8.904;2023-07-09T05:57:29;6.27;;;5.70;;
8622;SDS011;4349;47.552;8.904;2023-07-09T05:59:58;7.33;;;6.40;;
8622;SDS011;4349;47.552;8.904;2023-07-09T06:02:25;6.73;;;5.73;;
8622;SDS011;4349;47.552;8.904;2023-07-09T06:04:53;6.33;;;5.60;;
8622;SDS011;4349;47.552;8.904;2023-07-09T06:07:21;6.63;;;5.90;;
8622;SDS011;4349;47.552;8.904;2023-07-09T06:09:49;5.77;;;5.20;;
8622;SDS011;4349;47.552;8.904;2023-07-09T06:12:16;5.30;;;4.90;;
8622;SDS011;4349;47.552;8.904;2023-07-09T06:14:45;5.10;;;4.70;;
8622;SDS011;4349;47.552;8.904;2023-07-09T06:17:14;6.47;;;5.67;;
8622;SDS011;4349;47.552;8.904;2023-07-09T06:19:42;5.70;;;5.40;;
8622;SDS011;4349;47.552;8.904;2023-07-09T06:22:09;5.90;;;5.40;;
8622;SDS011;4349;47.552;8.904;2023-07-09T06:24:37;6.03;;;5.10;;
8622;SDS011;4349;47.552;8.904;2023-07-09T06:27:04;6.60;;;5.40;;
8622;SDS011;4349;47.552;8.904;2023-07-09T06:29:32;14.57;;;6.80;;
8622;SDS011;4349;47.552;8.904;2023-07-09T06:31:59;6.25;;;5.72;;
8622;SDS011;4349;47.552;8.904;2023-07-09T06:34:28;7.93;;;6.10;;
8622;SDS011;4349;47.552;8.904;2023-07-09T06:36:56;6.20;;;5.63;;
8622;SDS011;4349;47.552;8.904;2023-07-09T06:39:23;6.50;;;5.90;;
8622;SDS011;4349;47.552;8.904;2023-07-09T06:41:51;7.15;;;6.03;;
8622;SDS011;4349;47.552;8.904;2023-07-09T06:44:35;6.60;;;6.10;;
8622;SDS011;4349;47.552;8.904;2023-07-09T06:47:02;6.60;;;6.03;;
8622;SDS011;4349;47.552;8.904;2023-07-09T06:49:31;6.32;;;5.72;;
8622;SDS011;4349;47.552;8.904;2023-07-09T06:51:59;7.10;;;5.63;;
8622;SDS011;4349;47.552;8.904;2023-07-09T06:54:26;5.22;;;4.80;;
8622;SDS011;4349;47.552;8.904;2023-07-09T06:56:54;5.97;;;5.43;;
8622;SDS011;4349;47.552;8.904;2023-07-09T06:59:21;5.95;;;5.55;;
8622;SDS011;4349;47.552;8.904;2023-07-09T07:01:49;6.75;;;6.15;;
8622;SDS011;4349;47.552;8.904;2023-07-09T07:04:16;8.32;;;6.13;;
8622;SDS011;4349;47.552;8.904;2023-07-09T07:06:45;6.75;;;6.03;;
8622;SDS011;4349;47.552;8.904;2023-07-09T07:09:16;6.18;;;5.65;;
8622;SDS011;4349;47.552;8.904;2023-07-09T07:11:43;5.88;;;5.47;;
8622;SDS011;4349;47.552;8.904;2023-07-09T07:14:11;9.20;;;6.10;;
8622;SDS011;4349;47.552;8.904;2023-07-09T07:16:38;7.35;;;5.75;;
8622;SDS011;4349;47.552;8.904;2023-07-09T07:19:06;8.20;;;5.78;;
8622;SDS011;4349;47.552;8.904;2023-07-09T07:21:33;6.18;;;5.68;;
8622;SDS011;4349;47.552;8.904;2023-07-09T07:24:02;6.15;;;5.55;;
8622;SDS011;4349;47.552;8.904;2023-07-09T07:26:30;5.68;;;5.20;;
8622;SDS011;4349;47.552;8.904;2023-07-09T07:28:57;6.47;;;5.90;;
8622;SDS011;4349;47.552;8.904;2023-07-09T07:31:25;6.45;;;5.90;;
8622;SDS011;4349;47.552;8.904;2023-07-09T07:33:52;5.57;;;5.07;;
8622;SDS011;4349;47.552;8.904;2023-07-09T07:36:20;5.93;;;5.35;;
8622;SDS011;4349;47.552;8.904;2023-07-09T07:38:54;5.93;;;5.32;;
8622;SDS011;4349;47.552;8.904;2023-07-09T07:41:23;5.93;;;5.13;;
8622;SDS011;4349;47.552;8.904;2023-07-09T07:43:51;5.32;;;4.82;;
8622;SDS011;4349;47.552;8.904;2023-07-09T07:46:18;5.22;;;4.88;;
8622;SDS011;4349;47.552;8.904;2023-07-09T07:48:45;6.10;;;5.32;;
8622;SDS011;4349;47.552;8.904;2023-07-09T07:51:13;6.82;;;4.90;;
8622;SDS011;4349;47.552;8.904;2023-07-09T07:53:40;5.30;;;4.93;;
8622;SDS011;4349;47.552;8.904;2023-07-09T07:56:08;5.40;;;5.00;;
8622;SDS011;4349;47.552;8.904;2023-07-09T07:58:37;5.20;;;4.82;;
8622;SDS011;4349;47.552;8.904;2023-07-09T08:01:05;5.90;;;5.30;;
8622;SDS011;4349;47.552;8.904;2023-07-09T08:03:33;6.10;;;4.70;;
8622;SDS011;4349;47.552;8.904;2023-07-09T08:06:01;4.97;;;4.68;;
8622;SDS011;4349;47.552;8.904;2023-07-09T08:08:30;5.60;;;4.60;;
8622;SDS011;4349;47.552;8.904;2023-07-09T08:11:00;5.13;;;4.72;;
8622;SDS011;4349;47.552;8.904;2023-07-09T08:13:31;5.07;;;4.68;;
8622;SDS011;4349;47.552;8.904;2023-07-09T08:16:01;5.40;;;4.90;;
8622;SDS011;4349;47.552;8.904;2023-07-09T08:18:29;4.97;;;4.53;;
8622;SDS011;4349;47.552;8.904;2023-07-09T08:20:57;5.35;;;4.97;;
8622;SDS011;4349;47.552;8.904;2023-07-09T08:23:25;5.32;;;4.82;;
8622;SDS011;4349;47.552;8.904;2023-07-09T08:25:53;6.40;;;4.93;;
8622;SDS011;4349;47.552;8.904;2023-07-09T08:28:21;4.68;;;4.25;;
8622;SDS011;4349;47.552;8.904;2023-07-09T08:30:50;7.07;;;5.68;;
8622;SDS011;4349;47.552;8.904;2023-07-09T08:33:19;5.60;;;4.53;;
8622;SDS011;4349;47.552;8.904;2023-07-09T08:35:48;5.32;;;4.95;;
8622;SDS011;4349;47.552;8.904;2023-07-09T08:38:16;6.50;;;5.35;;
8622;SDS011;4349;47.552;8.904;2023-07-09T08:40:49;5.40;;;4.95;;
8622;SDS011;4349;47.552;8.904;2023-07-09T08:43:20;5.15;;;4.80;;
8622;SDS011;4349;47.552;8.904;2023-07-09T08:45:54;4.82;;;4.45;;
8622;SDS011;4349;47.552;8.904;2023-07-09T08:48:27;4.70;;;4.30;;
8622;SDS011;4349;47.552;8.904;2023-07-09T08:50:57;4.90;;;4.15;;
8622;SDS011;4349;47.552;8.904;2023-07-09T08:53:29;4.68;;;4.38;;
8622;SDS011;4349;47.552;8.904;2023-07-09T08:55:58;4.32;;;3.97;;
8622;SDS011;4349;47.552;8.904;2023-07-09T08:58:27;4.40;;;4.18;;
8622;SDS011;4349;47.552;8.904;2023-07-09T09:00:56;5.68;;;4.30;;
8622;SDS011;4349;47.552;8.904;2023-07-09T09:03:30;4.60;;;4.20;;
8622;SDS011;4349;47.552;8.904;2023-07-09T09:06:02;4.60;;;4.20;;
8622;SDS011;4349;47.552;8.904;2023-07-09T09:08:33;4.00;;;3.70;;
8622;SDS011;4349;47.552;8.904;2023-07-09T09:11:06;4.18;;;3.88;;
8622;SDS011;4349;47.552;8.904;2023-07-09T09:13:35;4.80;;;3.95;;
8622;SDS011;4349;47.552;8.904;2023-07-09T09:16:06;4.22;;;3.90;;
8622;SDS011;4349;47.552;8.904;2023-07-09T09:18:40;3.88;;;3.60;;
8622;SDS011;4349;47.552;8.904;2023-07-09T09:21:10;4.13;;;3.85;;
8622;SDS011;4349;47.552;8.904;2023-07-09T09:23:41;3.50;;;3.20;;
8622;SDS011;4349;47.552;8.904;2023-07-09T09:26:13;3.45;;;3.15;;
8622;SDS011;4349;47.552;8.904;2023-07-09T09:28:42;3.63;;;3.35;;
8622;SDS011;4349;47.552;8.904;2023-07-09T09:31:10;3.00;;;2.90;;
8622;SDS011;4349;47.552;8.904;2023-07-09T09:33:41;4.10;;;3.35;;
8622;SDS011;4349;47.552;8.904;2023-07-09T09:36:14;3.40;;;3.10;;
8622;SDS011;4349;47.552;8.904;2023-07-09T09:38:42;4.00;;;3.33;;
8622;SDS011;4349;47.552;8.904;2023-07-09T09:41:14;3.50;;;3.20;;
8622;SDS011;4349;47.552;8.904;2023-07-09T09:43:42;3.83;;;3.53;;
8622;SDS011;4349;47.552;8.904;2023-07-09T09:46:16;3.53;;;3.33;;
8622;SDS011;4349;47.552;8.904;2023-07-09T09:48:46;3.78;;;3.50;;
8622;SDS011;4349;47.552;8.904;2023-07-09T09:51:14;4.00;;;3.80;;
8622;SDS011;4349;47.552;8.904;2023-07-09T09:53:44;4.22;;;3.85;;
8622;SDS011;4349;47.552;8.904;2023-07-09T09:56:14;3.80;;;3.60;;
8622;SDS011;4349;47.552;8.904;2023-07-09T09:58:42;4.00;;;3.75;;
8622;SDS011;4349;47.552;8.904;2023-07-09T10:01:14;3.78;;;3.58;;
8622;SDS011;4349;47.552;8.904;2023-07-09T10:03:42;3.55;;;3.35;;
8622;SDS011;4349;47.552;8.904;2023-07-09T10:06:14;3.58;;;3.38;;
8622;SDS011;4349;47.552;8.904;2023-07-09T10:08:46;3.30;;;3.20;;
8622;SDS011;4349;47.552;8.904;2023-07-09T10:11:18;4.25;;;3.95;;
8622;SDS011;4349;47.552;8.904;2023-07-09T10:13:48;3.92;;;3.67;;
8622;SDS011;4349;47.552;8.904;2023-07-09T10:16:18;4.18;;;3.72;;
8622;SDS011;4349;47.552;8.904;2023-07-09T10:18:49;4.40;;;3.75;;
8622;SDS011;4349;47.552;8.904;2023-07-09T10:21:23;5.15;;;3.55;;
8622;SDS011;4349;47.552;8.904;2023-07-09T10:24:00;4.10;;;3.80;;
8622;SDS011;4349;47.552;8.904;2023-07-09T10:26:32;3.78;;;3.58;;
8622;SDS011;4349;47.552;8.904;2023-07-09T10:29:07;4.53;;;3.53;;
8622;SDS011;4349;47.552;8.904;2023-07-09T10:31:41;5.10;;;4.03;;
8622;SDS011;4349;47.552;8.904;2023-07-09T10:34:13;3.45;;;3.17;;
8622;SDS011;4349;47.552;8.904;2023-07-09T10:36:51;3.55;;;3.25;;
8622;SDS011;4349;47.552;8.904;2023-07-09T10:39:21;3.83;;;3.45;;
8622;SDS011;4349;47.552;8.904;2023-07-09T10:41:50;4.30;;;3.30;;
8622;SDS011;4349;47.552;8.904;2023-07-09T10:44:20;3.58;;;3.33;;
8622;SDS011;4349;47.552;8.904;2023-07-09T10:46:50;3.30;;;3.10;;
8622;SDS011;4349;47.552;8.904;2023-07-09T10:49:20;3.78;;;3.53;;
8622;SDS011;4349;47.552;8.904;2023-07-09T10:51:50;3.83;;;3.60;;
8622;SDS011;4349;47.552;8.904;2023-07-09T10:54:21;3.58;;;3.40;;
8622;SDS011;4349;47.552;8.904;2023-07-09T10:56:54;3.38;;;3.17;;
8622;SDS011;4349;47.552;8.904;2023-07-09T10:59:25;3.67;;;3.38;;
8622;SDS011;4349;47.552;8.904;2023-07-09T11:01:54;3.70;;;3.40;;
8622;SDS011;4349;47.552;8.904;2023-07-09T11:04:25;3.70;;;3.50;;
8622;SDS011;4349;47.552;8.904;2023-07-09T11:06:56;3.30;;;3.20;;
8622;SDS011;4349;47.552;8.904;2023-07-09T11:09:26;3.42;;;3.20;;
8622;SDS011;4349;47.552;8.904;2023-07-09T11:11:58;3.40;;;3.20;;
8622;SDS011;4349;47.552;8.904;2023-07-09T11:14:28;3.50;;;3.20;;
8622;SDS011;4349;47.552;8.904;2023-07-09T11:16:59;3.97;;;3.20;;
8622;SDS011;4349;47.552;8.904;2023-07-09T11:19:27;3.38;;;2.75;;
8622;SDS011;4349;47.552;8.904;2023-07-09T11:22:02;3.63;;;3.33;;
8622;SDS011;4349;47.552;8.904;2023-07-09T11:24:31;3.80;;;2.95;;
8622;SDS011;4349;47.552;8.904;2023-07-09T11:26:59;5.00;;;2.60;;
8622;SDS011;4349;47.552;8.904;2023-07-09T11:29:27;3.72;;;3.42;;
8622;SDS011;4349;47.552;8.904;2023-07-09T11:32:06;3.75;;;3.30;;
8622;SDS011;4349;47.552;8.904;2023-07-09T11:34:34;3.30;;;3.10;;
8622;SDS011;4349;47.552;8.904;2023-07-09T11:37:13;3.20;;;3.00;;
8622;SDS011;4349;47.552;8.904;2023-07-09T11:39:44;3.50;;;3.30;;
8622;SDS011;4349;47.552;8.904;2023-07-09T11:42:25;3.17;;;2.97;;
8622;SDS011;4349;47.552;8.904;2023-07-09T11:44:54;3.17;;;2.97;;
8622;SDS011;4349;47.552;8.904;2023-07-09T11:47:25;3.10;;;2.67;;
8622;SDS011;4349;47.552;8.904;2023-07-09T11:49:54;3.10;;;2.90;;
8622;SDS011;4349;47.552;8.904;2023-07-09T11:52:27;3.20;;;3.00;;
8622;SDS011;4349;47.552;8.904;2023-07-09T11:54:54;3.08;;;2.88;;
8622;SDS011;4349;47.552;8.904;2023-07-09T11:57:22;3.22;;;3.03;;
8622;SDS011;4349;47.552;8.904;2023-07-09T11:59:49;3.03;;;2.83;;
8622;SDS011;4349;47.552;8.904;2023-07-09T12:02:17;3.40;;;3.10;;
8622;SDS011;4349;47.552;8.904;2023-07-09T12:04:47;3.28;;;3.03;;
8622;SDS011;4349;47.552;8.904;2023-07-09T12:07:15;3.67;;;3.38;;
8622;SDS011;4349;47.552;8.904;2023-07-09T12:09:48;4.47;;;3.22;;
8622;SDS011;4349;47.552;8.904;2023-07-09T12:12:20;3.28;;;3.00;;
8622;SDS011;4349;47.552;8.904;2023-07-09T12:14:48;3.45;;;3.15;;
8622;SDS011;4349;47.552;8.904;2023-07-09T12:17:16;3.20;;;3.00;;
8622;SDS011;4349;47.552;8.904;2023-07-09T12:19:43;3.65;;;3.38;;
8622;SDS011;4349;47.552;8.904;2023-07-09T12:22:14;3.45;;;3.00;;
8622;SDS011;4349;47.552;8.904;2023-07-09T12:24:43;3.08;;;2.78;;
8622;SDS011;4349;47.552;8.904;2023-07-09T12:27:18;3.40;;;3.20;;
8622;SDS011;4349;47.552;8.904;2023-07-09T12:29:46;3.20;;;2.90;;
8622;SDS011;4349;47.552;8.904;2023-07-09T12:32:14;3.67;;;3.15;;
8622;SDS011;4349;47.552;8.904;2023-07-09T12:34:42;5.07;;;3.00;;
8622;SDS011;4349;47.552;8.904;2023-07-09T12:37:10;4.25;;;3.22;;
8622;SDS011;4349;47.552;8.904;2023-07-09T12:39:39;4.05;;;3.63;;
8622;SDS011;4349;47.552;8.904;2023-07-09T12:42:12;3.40;;;3.08;;
8622;SDS011;4349;47.552;8.904;2023-07-09T12:44:43;3.30;;;3.10;;
8622;SDS011;4349;47.552;8.904;2023-07-09T12:47:12;2.95;;;2.83;;
8622;SDS011;4349;47.552;8.904;2023-07-09T12:49:41;3.13;;;2.92;;
8622;SDS011;4349;47.552;8.904;2023-07-09T12:52:11;3.10;;;2.92;;
8622;SDS011;4349;47.552;8.904;2023-07-09T12:54:39;3.30;;;3.00;;
8622;SDS011;4349;47.552;8.904;2023-07-09T12:57:10;4.93;;;2.80;;
8622;SDS011;4349;47.552;8.904;2023-07-09T12:59:40;3.13;;;2.80;;
8622;SDS011;4349;47.552;8.904;2023-07-09T13:02:13;3.92;;;3.42;;
8622;SDS011;4349;47.552;8.904;2023-07-09T13:04:41;3.85;;;3.10;;
8622;SDS011;4349;47.552;8.904;2023-07-09T13:07:23;3.70;;;3.50;;
8622;SDS011;4349;47.552;8.904;2023-07-09T13:09:52;3.28;;;2.53;;
8622;SDS011;4349;47.552;8.904;2023-07-09T13:12:20;3.05;;;2.78;;
8622;SDS011;4349;47.552;8.904;2023-07-09T13:14:52;3.30;;;3.10;;
8622;SDS011;4349;47.552;8.904;2023-07-09T13:17:22;3.40;;;3.10;;
8622;SDS011;4349;47.552;8.904;2023-07-09T13:19:50;3.60;;;3.30;;
8622;SDS011;4349;47.552;8.904;2023-07-09T13:22:21;3.35;;;3.10;;
8622;SDS011;4349;47.552;8.904;2023-07-09T13:24:49;3.60;;;3.30;;
8622;SDS011;4349;47.552;8.904;2023-07-09T13:27:17;3.30;;;3.10;;
8622;SDS011;4349;47.552;8.904;2023-07-09T13:29:44;3.28;;;3.05;;
8622;SDS011;4349;47.552;8.904;2023-07-09T13:32:13;4.32;;;3.20;;
8622;SDS011;4349;47.552;8.904;2023-07-09T13:34:42;3.47;;;3.17;;
8622;SDS011;4349;47.552;8.904;2023-07-09T13:37:11;3.47;;;3.17;;
8622;SDS011;4349;47.552;8.904;2023-07-09T13:39:39;3.72;;;3.28;;
8622;SDS011;4349;47.552;8.904;2023-07-09T13:42:09;2.97;;;2.78;;
8622;SDS011;4349;47.552;8.904;2023-07-09T13:44:39;3.85;;;3.00;;
8622;SDS011;4349;47.552;8.904;2023-07-09T13:47:08;2.97;;;2.75;;
8622;SDS011;4349;47.552;8.904;2023-07-09T13:49:36;3.13;;;2.92;;
8622;SDS011;4349;47.552;8.904;2023-07-09T13:52:09;3.38;;;3.05;;
8622;SDS011;4349;47.552;8.904;2023-07-09T13:54:40;3.40;;;3.10;;
8622;SDS011;4349;47.552;8.904;2023-07-09T13:57:10;3.30;;;2.70;;
8622;SDS011;4349;47.552;8.904;2023-07-09T13:59:39;3.75;;;2.75;;
8622;SDS011;4349;47.552;8.904;2023-07-09T14:02:15;4.03;;;2.85;;
8622;SDS011;4349;47.552;8.904;2023-07-09T14:04:43;4.05;;;2.88;;
8622;SDS011;4349;47.552;8.904;2023-07-09T14:07:13;3.58;;;2.75;;
8622;SDS011;4349;47.552;8.904;2023-07-09T14:09:47;3.22;;;2.65;;
8622;SDS011;4349;47.552;8.904;2023-07-09T14:12:14;3.10;;;2.70;;
8622;SDS011;4349;47.552;8.904;2023-07-09T14:14:42;3.42;;;2.75;;
8622;SDS011;4349;47.552;8.904;2023-07-09T14:17:11;3.50;;;3.20;;
8622;SDS011;4349;47.552;8.904;2023-07-09T14:19:39;3.25;;;3.05;;
8622;SDS011;4349;47.552;8.904;2023-07-09T14:22:13;3.20;;;3.00;;
8622;SDS011;4349;47.552;8.904;2023-07-09T14:24:44;3.58;;;2.80;;
8622;SDS011;4349;47.552;8.904;2023-07-09T14:27:11;4.13;;;2.78;;
8622;SDS011;4349;47.552;8.904;2023-07-09T14:29:38;3.20;;;3.00;;
8622;SDS011;4349;47.552;8.904;2023-07-09T14:32:08;3.50;;;3.15;;
8622;SDS011;4349;47.552;8.904;2023-07-09T14:34:49;2.90;;;2.70;;
8622;SDS011;4349;47.552;8.904;2023-07-09T14:37:17;2.95;;;2.85;;
8622;SDS011;4349;47.552;8.904;2023-07-09T14:39:46;2.83;;;2.63;;
8622;SDS011;4349;47.552;8.904;2023-07-09T14:42:13;3.33;;;2.90;;
8622;SDS011;4349;47.552;8.904;2023-07-09T14:44:42;5.10;;;2.80;;
8622;SDS011;4349;47.552;8.904;2023-07-09T14:47:11;2.85;;;2.65;;
8622;SDS011;4349;47.552;8.904;2023-07-09T14:49:41;2.97;;;2.78;;
8622;SDS011;4349;47.552;8.904;2023-07-09T14:52:10;2.85;;;2.65;;
8622;SDS011;4349;47.552;8.904;2023-07-09T14:54:39;4.63;;;2.42;;
8622;SDS011;4349;47.552;8.904;2023-07-09T14:57:12;3.03;;;2.80;;
8622;SDS011;4349;47.552;8.904;2023-07-09T14:59:41;2.63;;;2.45;;
8622;SDS011;4349;47.552;8.904;2023-07-09T15:02:11;3.03;;;2.72;;
8622;SDS011;4349;47.552;8.904;2023-07-09T15:04:45;2.92;;;2.72;;
8622;SDS011;4349;47.552;8.904;2023-07-09T15:07:13;3.20;;;2.60;;
8622;SDS011;4349;47.552;8.904;2023-07-09T15:09:40;2.80;;;2.70;;
8622;SDS011;4349;47.552;8.904;2023-07-09T15:12:14;3.13;;;2.90;;
8622;SDS011;4349;47.552;8.904;2023-07-09T15:14:42;2.55;;;2.45;;
8622;SDS011;4349;47.552;8.904;2023-07-09T15:17:10;2.90;;;2.55;;
8622;SDS011;4349;47.552;8.904;2023-07-09T15:19:38;2.30;;;2.20;;
8622;SDS011;4349;47.552;8.904;2023-07-09T15:22:07;3.00;;;2.80;;
8622;SDS011;4349;47.552;8.904;2023-07-09T15:24:40;4.13;;;2.78;;
8622;SDS011;4349;47.552;8.904;2023-07-09T15:27:09;2.72;;;2.53;;